Pino Ladra — ECGJ — position and weather

sailwx.info

Track history (hours):
 
Tides and Currents Weather Stations Pressure Air Temp Water Temp Dewpoint Dewpoint Depression Visibility Wind Speed Wind Dir Waves Ship Positions

Pino Ladra

Last reported at 2014-Jan-07 01:16 UTC. Time now 2014-Nov-28 15:50 UTC.
Position N 43°35' W 005°40'.
Warning: this ship's position is months out of date.

Length 32 m; draft 4.5 m.

Type: Fishing. MMSI: 224134550.

Date/timePositionNaut miles runAvg speedWind from/ knotsBaromVisibWave heightAir tempDewpointWater temp
2014-Jan-07 01:16N 43°35' W 005°40'3 3.5
2014-Jan-07 00:33N 43°33' W 005°42'0 0.0
2014-Jan-06 23:33N 43°33' W 005°42'0 0.0
2014-Jan-06 22:31N 43°33' W 005°42'0 0.0
2014-Jan-06 21:31N 43°33' W 005°42'0 0.0
2014-Jan-06 20:31N 43°33' W 005°42'0 0.0
2014-Jan-06 19:33N 43°33' W 005°42'0 0.1
2014-Jan-06 18:21N 43°33' W 005°42'3 0.2
2014-Jan-06 00:31N 43°35' W 005°38'1 0.8
2014-Jan-05 23:14N 43°34' W 005°40'2 2.5
2014-Jan-05 22:31N 43°33' W 005°42'  
2014-Jan-03 18:20N 43°33' W 005°42'0 0.0
2014-Jan-03 17:33N 43°33' W 005°42'0 0.1
2014-Jan-03 16:33N 43°33' W 005°42'5 4.7
2014-Jan-03 15:33N 43°35' W 005°36'  
Track history (hours):
 
Tides and Currents Weather Stations Pressure Air Temp Water Temp Dewpoint Dewpoint Depression Visibility Wind Speed Wind Dir Waves Ship Positions

Pino Ladra

Last reported at 2014-Jan-07 01:16 UTC. Time now 2014-Nov-28 15:50 UTC.
Position N 43°35' W 005°40'.
Warning: this ship's position is months out of date.

Length 32 m; draft 4.5 m.

Type: Fishing. MMSI: 224134550.

Date/timePositionNaut miles runAvg speedWind from/ knotsBaromVisibWave heightAir tempDewpointWater temp
2014-Jan-07 01:16N 43°35' W 005°40'3 3.5
2014-Jan-07 00:33N 43°33' W 005°42'0 0.0
2014-Jan-06 23:33N 43°33' W 005°42'0 0.0
2014-Jan-06 22:31N 43°33' W 005°42'0 0.0
2014-Jan-06 21:31N 43°33' W 005°42'0 0.0
2014-Jan-06 20:31N 43°33' W 005°42'0 0.0
2014-Jan-06 19:33N 43°33' W 005°42'0 0.1
2014-Jan-06 18:21N 43°33' W 005°42'3 0.2
2014-Jan-06 00:31N 43°35' W 005°38'1 0.8
2014-Jan-05 23:14N 43°34' W 005°40'2 2.5
2014-Jan-05 22:31N 43°33' W 005°42'  
2014-Jan-03 18:20N 43°33' W 005°42'0 0.0
2014-Jan-03 17:33N 43°33' W 005°42'0 0.1
2014-Jan-03 16:33N 43°33' W 005°42'5 4.7
2014-Jan-03 15:33N 43°35' W 005°36'  

Dump ship's entire track history